Time;durP1;ratioP1;P1;durP2;ratioP2;P2;SDS_P1;SDS_P2;PMS_P1;PMS_P2;Temp;Humidity;BMP_temperature;BMP_pressure;BME280_temperature;BME280_humidity;BME280_pressure;Samples;Min_cycle;Max_cycle;Signal;HPM_P1;HPM_P2
2021/07/06 00:01:25;;;;;;;6.40;3.60;;;;;;;;;;5074615;28;20039;-81
2021/07/06 00:03:53;;;;;;;4.07;3.63;;;;;;;;;;5075789;28;20282;-81
2021/07/06 00:06:18;;;;;;;3.75;3.38;;;;;;;;;;5076247;28;20522;-81
2021/07/06 00:08:43;;;;;;;5.13;4.00;;;;;;;;;;5076210;28;20028;-82
2021/07/06 00:11:11;;;;;;;3.83;3.47;;;;;;;;;;5076095;28;20048;-81
2021/07/06 00:13:38;;;;;;;7.50;3.60;;;;;;;;;;5075269;28;20288;-81
2021/07/06 00:16:06;;;;;;;3.58;3.38;;;;;;;;;;5076320;28;20032;-81
2021/07/06 00:18:31;;;;;;;6.70;2.95;;;;;;;;;;5075428;28;20028;-82
2021/07/06 00:20:58;;;;;;;4.05;3.70;;;;;;;;;;5076123;28;20032;-81
2021/07/06 00:23:23;;;;;;;3.60;3.15;;;;;;;;;;5061621;28;20148;-82
2021/07/06 00:25:49;;;;;;;3.08;2.88;;;;;;;;;;5055832;28;20059;-81
2021/07/06 00:28:14;;;;;;;4.00;3.70;;;;;;;;;;5059869;28;20024;-81
2021/07/06 00:30:39;;;;;;;2.70;2.50;;;;;;;;;;5075898;28;20255;-81
2021/07/06 00:33:04;;;;;;;3.95;2.97;;;;;;;;;;5075393;28;20149;-81
2021/07/06 00:35:32;;;;;;;4.57;3.93;;;;;;;;;;5065641;28;20020;-81
2021/07/06 00:37:57;;;;;;;3.85;3.55;;;;;;;;;;5055267;28;20317;-81
2021/07/06 00:40:22;;;;;;;4.37;3.97;;;;;;;;;;5056972;28;20024;-81
2021/07/06 00:42:58;;;;;;;4.07;3.72;;;;;;;;;;5057918;28;20287;-81
2021/07/06 00:45:26;;;;;;;;;;;;;;;;;;5055227;28;20028;-81
2021/07/06 00:47:51;;;;;;;3.90;3.60;;;;;;;;;;5054881;28;19905;-80
2021/07/06 00:50:18;;;;;;;4.47;3.88;;;;;;;;;;5055169;28;20020;-81
2021/07/06 00:52:44;;;;;;;4.72;3.88;;;;;;;;;;5062424;28;20024;-81
2021/07/06 00:55:09;;;;;;;4.18;3.80;;;;;;;;;;5070116;28;20017;-81
2021/07/06 00:57:37;;;;;;;4.28;3.85;;;;;;;;;;5055239;28;20032;-81
2021/07/06 01:00:09;;;;;;;7.05;4.10;;;;;;;;;;5054667;28;20020;-81
2021/07/06 01:02:36;;;;;;;4.55;4.00;;;;;;;;;;5054796;28;20053;-82
2021/07/06 01:05:03;;;;;;;4.30;3.72;;;;;;;;;;5054963;28;20048;-81
2021/07/06 01:07:29;;;;;;;5.25;3.70;;;;;;;;;;5055365;28;20025;-81
2021/07/06 01:09:54;;;;;;;5.53;3.90;;;;;;;;;;5055012;28;20330;-81
2021/07/06 01:12:23;;;;;;;4.68;4.00;;;;;;;;;;5054940;28;20439;-81
2021/07/06 01:14:48;;;;;;;6.00;3.75;;;;;;;;;;5060492;28;20090;-80
2021/07/06 01:17:13;;;;;;;5.40;3.90;;;;;;;;;;5073461;28;20429;-80
2021/07/06 01:19:41;;;;;;;3.97;3.67;;;;;;;;;;5068645;28;20032;-80
2021/07/06 01:22:07;;;;;;;4.63;4.03;;;;;;;;;;5054267;28;20029;-81
2021/07/06 01:24:38;;;;;;;4.40;4.10;;;;;;;;;;5057591;28;20021;-80
2021/07/06 01:27:06;;;;;;;4.38;3.97;;;;;;;;;;5074267;28;20019;-80
2021/07/06 01:29:32;;;;;;;4.63;4.20;;;;;;;;;;5073232;28;20020;-80
2021/07/06 01:31:59;;;;;;;4.38;4.07;;;;;;;;;;5074134;28;20024;-80
2021/07/06 01:34:25;;;;;;;4.40;4.10;;;;;;;;;;5074237;28;20029;-81
2021/07/06 01:36:50;;;;;;;9.23;4.10;;;;;;;;;;5072246;28;20024;-80
2021/07/06 01:39:19;;;;;;;4.43;4.03;;;;;;;;;;5073981;28;20255;-81
2021/07/06 01:41:44;;;;;;;4.78;4.20;;;;;;;;;;5072647;28;20584;-80
2021/07/06 01:44:21;;;;;;;5.25;4.15;;;;;;;;;;5073017;28;20138;-81
2021/07/06 01:46:48;;;;;;;4.40;4.10;;;;;;;;;;5073224;28;20021;-81
2021/07/06 01:49:14;;;;;;;4.30;4.00;;;;;;;;;;5073928;28;20448;-81
2021/07/06 01:51:42;;;;;;;4.93;3.88;;;;;;;;;;5057675;28;20025;-81
2021/07/06 01:54:07;;;;;;;4.63;4.00;;;;;;;;;;5053904;28;20035;-81
2021/07/06 01:56:42;;;;;;;4.25;3.95;;;;;;;;;;5054020;28;20092;-81
2021/07/06 01:59:07;;;;;;;4.55;4.18;;;;;;;;;;5053445;28;20024;-80
2021/07/06 02:01:33;;;;;;;4.53;4.13;;;;;;;;;;5053858;28;20021;-80
2021/07/06 02:03:59;;;;;;;4.55;4.10;;;;;;;;;;5053408;28;20040;-80
2021/07/06 02:06:26;;;;;;;4.53;4.22;;;;;;;;;;5060829;28;20083;-80
2021/07/06 02:08:51;;;;;;;4.22;3.88;;;;;;;;;;5072643;28;20017;-80
2021/07/06 02:11:19;;;;;;;6.93;4.38;;;;;;;;;;5072458;28;20031;-80
2021/07/06 02:13:46;;;;;;;4.35;4.00;;;;;;;;;;5068332;28;20392;-80
2021/07/06 02:16:12;;;;;;;6.43;4.10;;;;;;;;;;5051628;28;20028;-80
2021/07/06 02:18:40;;;;;;;5.95;4.47;;;;;;;;;;5053267;28;20028;-80
2021/07/06 02:21:07;;;;;;;4.82;4.38;;;;;;;;;;5053448;28;20021;-80
2021/07/06 02:23:33;;;;;;;7.15;4.05;;;;;;;;;;5053869;28;20017;-81
2021/07/06 02:26:04;;;;;;;4.60;4.30;;;;;;;;;;5063272;28;20429;-80
2021/07/06 02:28:29;;;;;;;4.88;3.90;;;;;;;;;;5073774;28;20021;-80
2021/07/06 02:30:56;;;;;;;4.80;4.30;;;;;;;;;;5068356;28;20039;-80
2021/07/06 02:33:22;;;;;;;4.07;3.70;;;;;;;;;;5070170;28;20349;-81
2021/07/06 02:35:48;;;;;;;5.13;4.10;;;;;;;;;;5064492;28;20017;-80
2021/07/06 02:38:14;;;;;;;4.60;3.63;;;;;;;;;;5064920;28;20025;-80
2021/07/06 02:40:39;;;;;;;6.68;3.85;;;;;;;;;;5053488;28;20027;-80
2021/07/06 02:43:04;;;;;;;7.28;3.65;;;;;;;;;;5053679;28;20496;-80
2021/07/06 02:45:30;;;;;;;4.32;4.00;;;;;;;;;;5071245;28;20540;-81
2021/07/06 02:47:55;;;;;;;3.67;3.47;;;;;;;;;;5073585;28;20425;-81
2021/07/06 02:50:22;;;;;;;4.88;4.00;;;;;;;;;;5073169;28;20020;-81
2021/07/06 02:52:47;;;;;;;3.88;3.58;;;;;;;;;;5073610;28;20020;-80
2021/07/06 02:55:13;;;;;;;4.50;4.10;;;;;;;;;;5069631;28;20498;-81
2021/07/06 02:57:41;;;;;;;6.05;4.20;;;;;;;;;;5071278;28;20029;-81
2021/07/06 03:00:14;;;;;;;4.80;4.32;;;;;;;;;;5071850;28;20100;-80
2021/07/06 03:02:40;;;;;;;4.43;3.20;;;;;;;;;;5072504;28;20135;-80
2021/07/06 03:05:06;;;;;;;4.82;4.25;;;;;;;;;;5072338;28;20049;-81
2021/07/06 03:07:31;;;;;;;3.83;3.50;;;;;;;;;;5073299;28;20021;-81
2021/07/06 03:09:57;;;;;;;3.50;3.20;;;;;;;;;;5072792;28;20054;-81
2021/07/06 03:12:22;;;;;;;3.70;3.40;;;;;;;;;;5073279;28;20274;-81
2021/07/06 03:14:52;;;;;;;5.60;3.00;;;;;;;;;;5072545;28;20293;-81
2021/07/06 03:17:17;;;;;;;3.67;3.38;;;;;;;;;;5073230;28;20255;-81
2021/07/06 03:19:45;;;;;;;4.87;2.97;;;;;;;;;;5058012;28;20030;-81
2021/07/06 03:22:12;;;;;;;5.45;3.15;;;;;;;;;;5065680;28;20290;-82
2021/07/06 03:24:37;;;;;;;4.07;3.65;;;;;;;;;;5072529;28;20020;-81
2021/07/06 03:27:03;;;;;;;4.80;4.40;;;;;;;;;;5073362;28;20027;-81
2021/07/06 03:29:28;;;;;;;5.30;4.30;;;;;;;;;;5073554;28;20040;-81
2021/07/06 03:31:53;;;;;;;5.30;3.22;;;;;;;;;;5072506;28;20220;-81
2021/07/06 03:34:21;;;;;;;6.70;4.00;;;;;;;;;;5073212;28;20030;-81
2021/07/06 03:36:46;;;;;;;4.35;3.95;;;;;;;;;;5066653;28;20044;-81
2021/07/06 03:39:14;;;;;;;3.60;3.30;;;;;;;;;;5076664;28;20429;-81
2021/07/06 03:41:41;;;;;;;3.85;3.40;;;;;;;;;;5075885;28;20275;-81
2021/07/06 03:44:06;;;;;;;6.95;3.72;;;;;;;;;;5076319;28;20076;-81
2021/07/06 03:46:34;;;;;;;6.75;3.60;;;;;;;;;;5075567;28;20174;-81
2021/07/06 03:49:03;;;;;;;4.55;3.40;;;;;;;;;;5076338;28;20048;-81
2021/07/06 03:51:28;;;;;;;7.18;3.50;;;;;;;;;;5076351;28;20353;-81
2021/07/06 03:53:53;;;;;;;4.90;3.47;;;;;;;;;;5076495;28;20021;-81
2021/07/06 03:56:21;;;;;;;5.03;3.07;;;;;;;;;;5075273;28;20353;-81
2021/07/06 03:58:46;;;;;;;3.75;3.30;;;;;;;;;;5076012;28;20722;-81
2021/07/06 04:01:11;;;;;;;7.97;4.10;;;;;;;;;;5060825;28;20036;-81
2021/07/06 04:03:36;;;;;;;3.90;3.20;;;;;;;;;;5055810;28;20460;-81
2021/07/06 04:06:04;;;;;;;4.22;3.92;;;;;;;;;;5066797;28;20056;-81
2021/07/06 04:08:29;;;;;;;5.30;3.60;;;;;;;;;;5076017;28;20035;-81
2021/07/06 04:10:59;;;;;;;4.90;3.33;;;;;;;;;;5074947;28;20020;-81
2021/07/06 04:13:25;;;;;;;8.63;3.30;;;;;;;;;;5074400;28;20595;-80
2021/07/06 04:15:50;;;;;;;3.90;3.53;;;;;;;;;;5075817;28;20021;-81
2021/07/06 04:18:18;;;;;;;4.93;4.50;;;;;;;;;;5075091;28;20017;-81
2021/07/06 04:20:45;;;;;;;4.93;3.85;;;;;;;;;;5075782;28;20024;-81
2021/07/06 04:23:10;;;;;;;5.00;3.60;;;;;;;;;;5070856;28;20021;-81
2021/07/06 04:25:36;;;;;;;3.78;3.30;;;;;;;;;;5055719;28;20503;-81
2021/07/06 04:28:03;;;;;;;4.47;3.40;;;;;;;;;;5057527;28;20411;-81
2021/07/06 04:30:29;;;;;;;6.07;3.35;;;;;;;;;;5075521;28;20075;-81
2021/07/06 04:32:56;;;;;;;4.13;3.70;;;;;;;;;;5075603;28;20441;-81
2021/07/06 04:35:22;;;;;;;4.38;3.97;;;;;;;;;;5075644;28;20032;-82
2021/07/06 04:37:48;;;;;;;4.03;3.70;;;;;;;;;;5074786;28;20012;-81
2021/07/06 04:40:16;;;;;;;4.75;4.07;;;;;;;;;;5075309;28;20024;-81
2021/07/06 04:42:41;;;;;;;10.57;3.70;;;;;;;;;;5067305;28;20032;-81
2021/07/06 04:45:06;;;;;;;7.75;3.45;;;;;;;;;;5055196;28;20349;-81
2021/07/06 04:47:32;;;;;;;5.50;4.15;;;;;;;;;;5059044;28;20024;-84
2021/07/06 04:49:57;;;;;;;5.22;3.78;;;;;;;;;;5075044;28;20021;-84
2021/07/06 04:52:22;;;;;;;3.90;3.50;;;;;;;;;;5074794;28;20020;-85
2021/07/06 04:54:48;;;;;;;4.65;4.22;;;;;;;;;;5075221;28;20350;-84
2021/07/06 04:57:21;;;;;;;5.18;4.60;;;;;;;;;;5074584;28;20379;-79
2021/07/06 04:59:46;;;;;;;4.82;3.67;;;;;;;;;;5074965;28;20479;-76
2021/07/06 05:02:14;;;;;;;6.30;3.60;;;;;;;;;;5057629;28;20036;-77
2021/07/06 05:04:41;;;;;;;5.13;4.10;;;;;;;;;;5054577;28;20259;-77
2021/07/06 05:07:07;;;;;;;6.28;4.50;;;;;;;;;;5061276;28;20051;-77
2021/07/06 05:09:32;;;;;;;8.43;4.15;;;;;;;;;;5074687;28;20025;-78
2021/07/06 05:11:58;;;;;;;5.45;4.00;;;;;;;;;;5074223;28;20033;-76
2021/07/06 05:14:23;;;;;;;7.40;3.88;;;;;;;;;;5074359;28;20029;-75
2021/07/06 05:16:48;;;;;;;5.63;4.10;;;;;;;;;;5066688;28;20372;-78
2021/07/06 05:19:15;;;;;;;4.45;3.80;;;;;;;;;;5074668;28;20583;-78
2021/07/06 05:21:41;;;;;;;4.38;3.83;;;;;;;;;;5072982;28;20043;-78
2021/07/06 05:24:06;;;;;;;5.17;4.67;;;;;;;;;;5074233;28;20017;-78
2021/07/06 05:26:33;;;;;;;5.15;3.55;;;;;;;;;;5073349;28;20266;-77
2021/07/06 05:28:59;;;;;;;4.93;3.67;;;;;;;;;;5072400;28;20024;-77
2021/07/06 05:31:24;;;;;;;6.38;4.00;;;;;;;;;;5073543;28;20187;-77
2021/07/06 05:33:49;;;;;;;6.60;4.10;;;;;;;;;;5073135;28;20024;-77
2021/07/06 05:36:15;;;;;;;7.20;4.00;;;;;;;;;;5074096;28;20024;-77
2021/07/06 05:38:40;;;;;;;5.72;3.97;;;;;;;;;;5073415;28;20025;-76
2021/07/06 05:41:08;;;;;;;4.60;4.20;;;;;;;;;;5073237;28;20445;-77
2021/07/06 05:43:36;;;;;;;5.10;4.00;;;;;;;;;;5073669;28;20035;-78
2021/07/06 05:46:02;;;;;;;5.50;4.10;;;;;;;;;;5073080;28;20148;-75
2021/07/06 05:48:27;;;;;;;7.63;4.10;;;;;;;;;;5073666;28;20097;-77
2021/07/06 05:50:52;;;;;;;8.15;4.38;;;;;;;;;;5072013;28;20024;-75
2021/07/06 05:53:19;;;;;;;7.40;3.90;;;;;;;;;;5073098;28;20028;-76
2021/07/06 05:55:47;;;;;;;4.68;3.70;;;;;;;;;;5073531;28;20367;-76
2021/07/06 05:58:15;;;;;;;10.30;4.43;;;;;;;;;;5071771;28;20020;-75
2021/07/06 06:00:42;;;;;;;7.00;3.95;;;;;;;;;;5072555;28;20031;-77
2021/07/06 06:03:11;;;;;;;5.53;3.85;;;;;;;;;;5071301;28;20096;-79
2021/07/06 06:05:39;;;;;;;4.72;3.90;;;;;;;;;;5070460;28;20045;-77
2021/07/06 06:08:07;;;;;;;6.47;4.20;;;;;;;;;;5073593;28;20330;-78
2021/07/06 06:10:32;;;;;;;5.97;3.83;;;;;;;;;;5072864;28;20020;-80
2021/07/06 06:12:57;;;;;;;5.72;3.78;;;;;;;;;;5073898;28;20021;-78
2021/07/06 06:15:25;;;;;;;4.22;3.80;;;;;;;;;;5073106;28;20059;-79
2021/07/06 06:17:50;;;;;;;6.75;4.10;;;;;;;;;;5071376;28;20052;-80
2021/07/06 06:20:16;;;;;;;5.45;4.28;;;;;;;;;;5071135;28;20479;-80
2021/07/06 06:22:41;;;;;;;5.32;4.25;;;;;;;;;;5071499;28;20036;-79
2021/07/06 06:25:06;;;;;;;5.50;4.68;;;;;;;;;;5073320;28;20052;-79
2021/07/06 06:27:32;;;;;;;4.93;4.00;;;;;;;;;;5072995;28;20112;-80
2021/07/06 06:29:58;;;;;;;6.22;4.13;;;;;;;;;;5072113;28;20016;-79
2021/07/06 06:32:25;;;;;;;5.80;3.80;;;;;;;;;;5073310;28;20016;-85
2021/07/06 06:34:51;;;;;;;4.90;3.95;;;;;;;;;;5072101;28;20021;-76
2021/07/06 06:37:19;;;;;;;7.38;4.40;;;;;;;;;;5072446;28;20017;-76
2021/07/06 06:39:44;;;;;;;5.70;4.45;;;;;;;;;;5073147;28;20022;-76
2021/07/06 06:42:10;;;;;;;7.13;4.20;;;;;;;;;;5055190;28;20132;-76
2021/07/06 06:44:35;;;;;;;5.38;3.78;;;;;;;;;;5069418;28;20056;-81
2021/07/06 06:47:00;;;;;;;5.03;3.60;;;;;;;;;;5072172;28;20016;-83
2021/07/06 06:49:25;;;;;;;5.10;4.60;;;;;;;;;;5071988;28;20437;-83
2021/07/06 06:51:53;;;;;;;4.33;3.60;;;;;;;;;;5065655;28;20025;-83
2021/07/06 06:54:18;;;;;;;4.53;3.95;;;;;;;;;;5072974;28;20259;-82
2021/07/06 06:56:46;;;;;;;5.07;4.63;;;;;;;;;;5067988;28;20039;-83
2021/07/06 06:59:12;;;;;;;6.20;4.00;;;;;;;;;;5072762;28;20267;-82
2021/07/06 07:01:38;;;;;;;4.72;4.13;;;;;;;;;;5070869;28;20020;-83
2021/07/06 07:04:06;;;;;;;5.43;4.00;;;;;;;;;;5064895;28;20021;-80
2021/07/06 07:06:34;;;;;;;4.88;3.65;;;;;;;;;;5067541;28;20059;-81
2021/07/06 07:09:02;;;;;;;4.93;3.92;;;;;;;;;;5071507;28;20028;-81
2021/07/06 07:11:27;;;;;;;4.90;4.20;;;;;;;;;;5068587;28;20051;-81
2021/07/06 07:13:55;;;;;;;6.43;4.13;;;;;;;;;;5072173;28;20052;-81
2021/07/06 07:16:22;;;;;;;6.03;4.03;;;;;;;;;;5071908;28;20262;-85
2021/07/06 07:18:48;;;;;;;5.82;4.57;;;;;;;;;;5069238;28;20044;-85
2021/07/06 07:21:14;;;;;;;4.60;3.88;;;;;;;;;;5074242;28;20433;-85
2021/07/06 07:23:42;;;;;;;7.10;4.43;;;;;;;;;;5069353;28;20493;-86
2021/07/06 07:26:09;;;;;;;6.70;5.05;;;;;;;;;;5073839;28;20024;-85
2021/07/06 07:28:35;;;;;;;6.53;4.25;;;;;;;;;;5073934;28;20025;-86
2021/07/06 07:31:00;;;;;;;5.30;4.35;;;;;;;;;;5071448;28;20024;-85
2021/07/06 07:33:26;;;;;;;5.78;3.80;;;;;;;;;;5072880;28;20119;-86
2021/07/06 07:35:51;;;;;;;4.85;3.72;;;;;;;;;;5067561;28;20102;-85
2021/07/06 07:38:16;;;;;;;5.57;3.80;;;;;;;;;;5073287;28;20052;-85
2021/07/06 07:40:41;;;;;;;4.97;4.25;;;;;;;;;;5073166;28;20074;-86
2021/07/06 07:43:09;;;;;;;4.00;3.70;;;;;;;;;;5072567;28;20091;-87
2021/07/06 07:45:35;;;;;;;4.93;4.28;;;;;;;;;;5074169;28;20258;-86
2021/07/06 07:48:00;;;;;;;8.30;4.75;;;;;;;;;;5069903;28;20008;-89
2021/07/06 07:50:28;;;;;;;4.80;4.40;;;;;;;;;;5073139;28;20016;-87
2021/07/06 07:52:53;;;;;;;4.32;4.03;;;;;;;;;;5072525;28;20025;-86
2021/07/06 07:55:22;;;;;;;4.05;3.70;;;;;;;;;;5071540;28;20083;-85
2021/07/06 07:57:48;;;;;;;4.18;3.88;;;;;;;;;;5074095;28;20046;-85
2021/07/06 08:00:15;;;;;;;4.00;3.67;;;;;;;;;;5074456;28;20440;-86
2021/07/06 08:02:41;;;;;;;4.93;3.58;;;;;;;;;;5073298;28;20319;-87
2021/07/06 08:05:06;;;;;;;3.85;3.60;;;;;;;;;;5071844;28;20094;-85
2021/07/06 08:07:34;;;;;;;3.92;3.63;;;;;;;;;;5070285;28;20033;-86
2021/07/06 08:09:59;;;;;;;4.72;4.32;;;;;;;;;;5070167;28;20075;-86
2021/07/06 08:12:24;;;;;;;4.63;4.22;;;;;;;;;;5070444;28;20361;-85
2021/07/06 08:14:51;;;;;;;3.97;3.67;;;;;;;;;;5061202;28;20100;-88
2021/07/06 08:17:16;;;;;;;4.05;3.75;;;;;;;;;;5075697;28;20346;-87
2021/07/06 08:19:41;;;;;;;3.58;3.38;;;;;;;;;;5075542;28;20429;-85
2021/07/06 08:22:07;;;;;;;6.40;3.80;;;;;;;;;;5073250;28;20097;-85
2021/07/06 08:24:32;;;;;;;4.07;3.67;;;;;;;;;;5074573;28;20243;-85
2021/07/06 08:26:57;;;;;;;4.65;4.10;;;;;;;;;;5074313;28;20023;-84
2021/07/06 08:29:27;;;;;;;3.58;3.33;;;;;;;;;;5073011;28;20021;-85
2021/07/06 08:31:52;;;;;;;4.10;3.70;;;;;;;;;;5073639;28;20016;-85
2021/07/06 08:34:17;;;;;;;3.67;3.47;;;;;;;;;;5071564;28;20028;-85
2021/07/06 08:36:42;;;;;;;3.90;3.60;;;;;;;;;;5070558;28;20032;-84
2021/07/06 08:39:08;;;;;;;4.00;3.70;;;;;;;;;;5074059;28;20357;-87
2021/07/06 08:41:34;;;;;;;4.00;3.58;;;;;;;;;;5074264;28;20428;-85
2021/07/06 08:44:02;;;;;;;5.72;3.75;;;;;;;;;;5071550;28;20075;-79
2021/07/06 08:46:33;;;;;;;5.05;4.50;;;;;;;;;;5074090;28;20073;-78
2021/07/06 08:49:01;;;;;;;4.13;3.83;;;;;;;;;;5067427;28;20032;-76
2021/07/06 08:51:26;;;;;;;5.47;4.28;;;;;;;;;;5060512;28;20107;-76
2021/07/06 08:53:52;;;;;;;4.25;3.90;;;;;;;;;;5074370;28;20090;-76
2021/07/06 08:56:18;;;;;;;5.50;4.93;;;;;;;;;;5071022;28;20020;-76
2021/07/06 08:58:44;;;;;;;4.30;3.90;;;;;;;;;;5074367;28;20399;-76
2021/07/06 09:01:10;;;;;;;5.10;3.78;;;;;;;;;;5074415;28;20031;-76
2021/07/06 09:03:50;;;;;;;4.53;4.22;;;;;;;;;;5074892;28;20020;-76
2021/07/06 09:06:15;;;;;;;4.93;4.50;;;;;;;;;;5074062;28;20045;-76
2021/07/06 09:08:40;;;;;;;4.40;4.00;;;;;;;;;;5057416;28;20400;-75
2021/07/06 09:11:15;;;;;;;4.67;4.33;;;;;;;;;;5054679;28;20269;-76
2021/07/06 09:13:40;;;;;;;4.22;3.80;;;;;;;;;;5061844;28;20312;-76
2021/07/06 09:16:05;;;;;;;3.50;3.20;;;;;;;;;;5073578;28;20024;-76
2021/07/06 09:18:32;;;;;;;3.85;3.42;;;;;;;;;;5070172;28;20373;-81
2021/07/06 09:21:08;;;;;;;4.80;3.60;;;;;;;;;;5073598;28;20029;-81
2021/07/06 09:23:34;;;;;;;4.20;3.50;;;;;;;;;;5074329;28;20020;-80
2021/07/06 09:26:08;;;;;;;4.68;4.40;;;;;;;;;;5068090;28;20023;-79
2021/07/06 09:28:34;;;;;;;4.00;3.80;;;;;;;;;;5069939;28;20027;-80
2021/07/06 09:31:18;;;;;;;4.05;3.75;;;;;;;;;;5074095;28;20013;-80
2021/07/06 09:33:51;;;;;;;3.72;3.42;;;;;;;;;;5073475;28;20047;-80
2021/07/06 09:36:36;;;;;;;4.20;3.90;;;;;;;;;;5070841;28;20040;-81
2021/07/06 09:39:01;;;;;;;3.85;3.63;;;;;;;;;;5073909;28;20441;-81
2021/07/06 09:41:26;;;;;;;4.70;4.40;;;;;;;;;;5074112;28;20081;-81
2021/07/06 09:43:52;;;;;;;5.25;4.80;;;;;;;;;;5074136;28;20300;-81
2021/07/06 09:46:24;;;;;;;4.20;3.90;;;;;;;;;;5058236;28;20441;-81
2021/07/06 09:48:58;;;;;;;4.95;4.65;;;;;;;;;;5055383;28;20357;-81
2021/07/06 09:51:24;;;;;;;5.07;4.15;;;;;;;;;;5074142;28;20023;-81
2021/07/06 09:53:51;;;;;;;4.15;3.85;;;;;;;;;;5066613;28;20454;-81
2021/07/06 09:56:17;;;;;;;4.60;4.30;;;;;;;;;;5071129;28;20122;-80
2021/07/06 09:58:56;;;;;;;4.30;4.00;;;;;;;;;;5072682;28;20024;-81
2021/07/06 10:01:22;;;;;;;7.32;4.40;;;;;;;;;;5072961;28;20024;-80
2021/07/06 10:03:48;;;;;;;4.75;3.55;;;;;;;;;;5073806;28;20020;-80
2021/07/06 10:06:14;;;;;;;4.90;4.50;;;;;;;;;;5072760;28;20365;-80
2021/07/06 10:08:42;;;;;;;4.40;3.47;;;;;;;;;;5073680;28;20111;-80
2021/07/06 10:11:12;;;;;;;5.10;4.80;;;;;;;;;;5072747;28;20012;-80
2021/07/06 10:13:38;;;;;;;4.35;4.05;;;;;;;;;;5071781;28;20032;-80
2021/07/06 10:16:06;;;;;;;4.68;4.28;;;;;;;;;;5064150;28;20349;-80
2021/07/06 10:18:32;;;;;;;4.18;3.80;;;;;;;;;;5073557;28;20028;-82
2021/07/06 10:20:58;;;;;;;3.90;3.60;;;;;;;;;;5067102;28;20043;-81
2021/07/06 10:23:24;;;;;;;5.18;4.32;;;;;;;;;;5073061;28;20031;-80
2021/07/06 10:25:53;;;;;;;3.65;3.40;;;;;;;;;;5072266;28;20126;-81
2021/07/06 10:28:21;;;;;;;4.00;3.70;;;;;;;;;;5070398;28;20073;-80
2021/07/06 10:30:47;;;;;;;4.70;4.38;;;;;;;;;;5073145;28;20020;-81
2021/07/06 10:33:16;;;;;;;3.85;3.65;;;;;;;;;;5073567;28;20472;-81
2021/07/06 10:35:42;;;;;;;5.45;4.75;;;;;;;;;;5059338;28;20306;-81
2021/07/06 10:38:25;;;;;;;4.90;4.57;;;;;;;;;;5052937;28;20024;-81
2021/07/06 10:40:53;;;;;;;5.30;4.97;;;;;;;;;;5070577;28;20437;-81
2021/07/06 10:43:31;;;;;;;5.05;4.75;;;;;;;;;;5072892;28;20016;-81
2021/07/06 10:46:16;;;;;;;5.20;4.90;;;;;;;;;;5066629;28;20144;-81
2021/07/06 10:48:42;;;;;;;5.43;4.90;;;;;;;;;;5074211;28;20017;-82
2021/07/06 10:51:07;;;;;;;4.25;4.05;;;;;;;;;;5075812;28;20090;-81
2021/07/06 10:53:33;;;;;;;4.68;4.28;;;;;;;;;;5076939;28;20376;-81
2021/07/06 10:56:05;;;;;;;6.40;4.43;;;;;;;;;;5075682;28;20028;-81
2021/07/06 10:59:02;;;;;;;6.18;4.70;;;;;;;;;;5077590;28;20349;-82
2021/07/06 11:01:37;;;;;;;6.40;3.85;;;;;;;;;;5059662;28;20107;-82
2021/07/06 11:04:06;;;;;;;4.73;4.20;;;;;;;;;;5075078;28;20153;-79
2021/07/06 11:06:43;;;;;;;4.70;4.40;;;;;;;;;;5072100;28;20477;-85
2021/07/06 11:09:09;;;;;;;4.60;4.30;;;;;;;;;;5071579;28;20024;-83
2021/07/06 11:11:35;;;;;;;4.82;4.40;;;;;;;;;;5076750;28;20043;-82
2021/07/06 11:14:19;;;;;;;4.50;4.20;;;;;;;;;;5077419;28;20349;-82
2021/07/06 11:16:54;;;;;;;4.65;4.28;;;;;;;;;;5074467;28;20028;-79
2021/07/06 11:19:38;;;;;;;4.95;4.63;;;;;;;;;;5076773;28;20477;-81
2021/07/06 11:22:13;;;;;;;4.57;4.18;;;;;;;;;;5064595;28;20428;-81
2021/07/06 11:24:40;;;;;;;4.18;3.78;;;;;;;;;;5073067;28;20111;-81
2021/07/06 11:27:06;;;;;;;4.80;4.50;;;;;;;;;;5076609;28;20016;-81
2021/07/06 11:29:41;;;;;;;5.40;5.05;;;;;;;;;;5076275;28;20103;-81
2021/07/06 11:32:15;;;;;;;6.65;6.15;;;;;;;;;;5075291;28;20086;-81
2021/07/06 11:34:40;;;;;;;7.10;6.35;;;;;;;;;;5074812;28;20111;-80
2021/07/06 11:37:10;;;;;;;6.03;4.93;;;;;;;;;;5075929;28;20488;-82
2021/07/06 11:39:35;;;;;;;5.50;5.10;;;;;;;;;;5075099;28;20625;-81
2021/07/06 11:42:06;;;;;;;7.10;6.65;;;;;;;;;;5075335;28;20059;-82
2021/07/06 11:44:32;;;;;;;5.32;5.03;;;;;;;;;;5076601;28;20408;-81
2021/07/06 11:47:29;;;;;;;5.90;5.40;;;;;;;;;;5075576;28;20017;-81
2021/07/06 11:49:55;;;;;;;6.35;5.95;;;;;;;;;;5024519;28;20114;-78
2021/07/06 11:52:22;;;;;;;5.33;5.03;;;;;;;;;;5070812;28;20118;-76
2021/07/06 11:54:49;;;;;;;5.68;5.18;;;;;;;;;;5075150;28;20029;-76
2021/07/06 11:57:14;;;;;;;5.00;4.50;;;;;;;;;;5069077;28;20025;-77
2021/07/06 11:59:42;;;;;;;5.20;4.90;;;;;;;;;;5076180;28;20415;-77
2021/07/06 12:02:11;;;;;;;4.53;4.22;;;;;;;;;;5071433;28;20025;-77
2021/07/06 12:04:37;;;;;;;5.93;5.43;;;;;;;;;;5072753;28;20024;-76
2021/07/06 12:07:06;;;;;;;4.57;4.18;;;;;;;;;;5056329;28;20017;-77
2021/07/06 12:09:32;;;;;;;5.85;5.22;;;;;;;;;;5062144;28;20442;-78
2021/07/06 12:12:10;;;;;;;4.80;4.50;;;;;;;;;;5076136;28;20040;-77
2021/07/06 12:14:36;;;;;;;4.32;3.60;;;;;;;;;;5076070;28;20536;-80
2021/07/06 12:17:03;;;;;;;3.83;3.63;;;;;;;;;;5076309;28;20091;-78
2021/07/06 12:19:28;;;;;;;6.05;3.13;;;;;;;;;;5071170;28;20441;-80
2021/07/06 12:21:58;;;;;;;6.50;3.53;;;;;;;;;;5076043;28;20032;-82
2021/07/06 12:24:27;;;;;;;6.53;3.17;;;;;;;;;;5075186;28;20025;-81
2021/07/06 12:26:55;;;;;;;4.10;3.90;;;;;;;;;;5072592;28;20035;-80
2021/07/06 12:29:31;;;;;;;4.70;4.28;;;;;;;;;;5071764;28;20020;-79
2021/07/06 12:31:56;;;;;;;4.60;3.97;;;;;;;;;;5070625;28;20017;-79
2021/07/06 12:34:46;;;;;;;4.20;3.80;;;;;;;;;;5074837;28;20021;-79
2021/07/06 12:37:14;;;;;;;4.07;3.78;;;;;;;;;;5068641;28;20025;-79
2021/07/06 12:39:43;;;;;;;5.97;3.83;;;;;;;;;;5074440;28;20456;-79
2021/07/06 12:42:09;;;;;;;4.53;4.22;;;;;;;;;;5073975;28;20356;-79
2021/07/06 12:44:35;;;;;;;3.30;3.00;;;;;;;;;;5071451;28;20037;-79
2021/07/06 12:47:10;;;;;;;4.47;4.07;;;;;;;;;;5073386;28;20441;-79
2021/07/06 12:49:35;;;;;;;5.82;3.80;;;;;;;;;;5072334;28;20023;-79
2021/07/06 12:52:01;;;;;;;3.87;3.63;;;;;;;;;;5074409;28;20017;-79
2021/07/06 12:54:30;;;;;;;4.28;3.97;;;;;;;;;;5073336;28;20293;-79
2021/07/06 12:57:00;;;;;;;7.55;5.22;;;;;;;;;;5067241;28;20025;-78
2021/07/06 12:59:29;;;;;;;5.00;4.70;;;;;;;;;;5073115;28;20107;-79
2021/07/06 13:01:54;;;;;;;6.80;4.22;;;;;;;;;;5070690;28;20103;-79
2021/07/06 13:04:22;;;;;;;4.55;4.18;;;;;;;;;;5068534;28;20060;-79
2021/07/06 13:06:50;;;;;;;4.90;4.60;;;;;;;;;;5070497;28;20052;-79
2021/07/06 13:09:28;;;;;;;7.05;3.83;;;;;;;;;;5073922;28;20009;-80
2021/07/06 13:11:54;;;;;;;4.75;4.30;;;;;;;;;;5073335;28;20105;-79
2021/07/06 13:14:22;;;;;;;7.40;4.10;;;;;;;;;;5074095;28;20048;-79
2021/07/06 13:16:47;;;;;;;5.50;3.70;;;;;;;;;;5071858;28;20127;-79
2021/07/06 13:19:23;;;;;;;5.10;4.03;;;;;;;;;;5067755;28;20103;-79
2021/07/06 13:21:49;;;;;;;4.68;3.83;;;;;;;;;;5069703;28;20111;-79
2021/07/06 13:24:17;;;;;;;5.90;3.47;;;;;;;;;;5069950;28;20036;-79
2021/07/06 13:26:45;;;;;;;4.47;3.50;;;;;;;;;;5069654;28;20017;-79
2021/07/06 13:29:10;;;;;;;4.15;3.85;;;;;;;;;;5070827;28;20026;-82
2021/07/06 13:31:39;;;;;;;6.22;4.00;;;;;;;;;;5068850;28;20359;-82
2021/07/06 13:34:09;;;;;;;4.93;4.53;;;;;;;;;;5071711;28;20062;-84
2021/07/06 13:36:34;;;;;;;4.45;4.03;;;;;;;;;;5073254;28;20075;-83
2021/07/06 13:39:00;;;;;;;8.00;4.20;;;;;;;;;;5072803;28;20468;-85
2021/07/06 13:41:25;;;;;;;4.13;3.83;;;;;;;;;;5065872;28;20025;-84
2021/07/06 13:43:53;;;;;;;5.95;4.88;;;;;;;;;;5068634;28;20090;-83
2021/07/06 13:46:18;;;;;;;7.25;4.50;;;;;;;;;;5070050;28;20025;-83
2021/07/06 13:48:43;;;;;;;5.30;4.80;;;;;;;;;;5071117;28;20027;-85
2021/07/06 13:51:09;;;;;;;4.63;4.32;;;;;;;;;;5073288;28;20309;-91
2021/07/06 13:53:34;;;;;;;4.22;3.92;;;;;;;;;;5072543;28;20020;-85
2021/07/06 13:55:59;;;;;;;6.28;4.13;;;;;;;;;;5073703;28;20364;-85
2021/07/06 13:58:25;;;;;;;5.50;4.80;;;;;;;;;;5073830;28;20021;-87
2021/07/06 14:00:53;;;;;;;6.18;5.10;;;;;;;;;;5066609;28;20112;-84
2021/07/06 14:03:19;;;;;;;5.47;4.30;;;;;;;;;;5071379;28;20016;-85
2021/07/06 14:05:45;;;;;;;4.75;4.20;;;;;;;;;;5067376;28;20537;-84
2021/07/06 14:08:13;;;;;;;6.93;4.47;;;;;;;;;;5051999;28;20100;-84
2021/07/06 14:10:39;;;;;;;6.75;4.60;;;;;;;;;;5053480;28;20013;-86
2021/07/06 14:13:04;;;;;;;5.57;4.78;;;;;;;;;;5056610;28;20111;-85
2021/07/06 14:15:29;;;;;;;5.82;4.55;;;;;;;;;;5071206;28;20356;-85
2021/07/06 14:17:55;;;;;;;6.80;5.77;;;;;;;;;;5072123;28;20035;-77
2021/07/06 14:20:20;;;;;;;4.63;4.20;;;;;;;;;;5070814;28;20243;-77
2021/07/06 14:22:46;;;;;;;7.17;4.87;;;;;;;;;;5069652;28;20353;-78
2021/07/06 14:25:12;;;;;;;6.40;5.80;;;;;;;;;;5072574;28;20251;-79
2021/07/06 14:27:39;;;;;;;5.40;4.95;;;;;;;;;;5073735;28;20099;-79
2021/07/06 14:30:05;;;;;;;5.65;5.15;;;;;;;;;;5064822;28;20021;-79
2021/07/06 14:32:37;;;;;;;5.97;5.47;;;;;;;;;;5071522;28;20111;-79
2021/07/06 14:35:04;;;;;;;7.50;4.80;;;;;;;;;;5073490;28;20017;-79
2021/07/06 14:37:34;;;;;;;6.68;4.22;;;;;;;;;;5073543;28;20025;-79
2021/07/06 14:39:59;;;;;;;7.50;4.20;;;;;;;;;;5064951;28;20024;-79
2021/07/06 14:42:24;;;;;;;6.00;4.30;;;;;;;;;;5052146;28;20040;-79
2021/07/06 14:44:49;;;;;;;6.80;5.05;;;;;;;;;;5071476;28;20376;-79